Time;durP1;ratioP1;P1;durP2;ratioP2;P2;SDS_P1;SDS_P2;PMS_P1;PMS_P2;Temp;Humidity;BMP_temperature;BMP_pressure;BME280_temperature;BME280_humidity;BME280_pressure;Samples;Min_cycle;Max_cycle;Signal;HPM_P1;HPM_P2
2022/04/18 00:02:11;;;;;;;5.73;4.20;;;9.30;61.80;;;;;;5054468;28;20449;-59
2022/04/18 00:04:38;;;;;;;5.93;4.03;;;9.30;62.10;;;;;;5054450;28;20445;-59
2022/04/18 00:07:05;;;;;;;4.00;3.70;;;9.30;61.40;;;;;;5054073;28;20455;-59
2022/04/18 00:09:34;;;;;;;4.63;3.70;;;9.30;62.60;;;;;;5054417;28;20449;-59
2022/04/18 00:12:01;;;;;;;4.93;4.43;;;9.10;61.20;;;;;;5054346;28;20449;-59
2022/04/18 00:14:28;;;;;;;4.27;3.93;;;9.10;62.20;;;;;;5054051;28;20501;-59
2022/04/18 00:16:57;;;;;;;5.30;4.50;;;9.10;63.60;;;;;;5054264;28;20458;-59
2022/04/18 00:19:24;;;;;;;4.43;4.10;;;9.10;63.80;;;;;;5053698;28;20989;-59
2022/04/18 00:21:51;;;;;;;3.97;3.67;;;9.00;64.00;;;;;;5054095;28;20815;-59
2022/04/18 00:24:20;;;;;;;4.30;3.90;;;8.90;64.30;;;;;;5053916;28;20437;-59
2022/04/18 00:26:49;;;;;;;5.13;4.30;;;9.00;65.00;;;;;;5054258;28;20453;-59
2022/04/18 00:29:16;;;;;;;4.33;3.93;;;9.10;65.70;;;;;;5053958;28;20473;-59
2022/04/18 00:31:44;;;;;;;4.10;3.70;;;9.00;65.70;;;;;;5053581;28;20997;-59
2022/04/18 00:34:14;;;;;;;5.70;4.67;;;9.00;65.50;;;;;;5053578;28;20481;-59
2022/04/18 00:36:41;;;;;;;4.43;4.00;;;8.90;66.30;;;;;;5053566;28;20445;-59
2022/04/18 00:39:09;;;;;;;5.77;3.97;;;8.90;66.90;;;;;;5053857;28;20469;-59
2022/04/18 00:41:36;;;;;;;7.53;4.60;;;8.80;67.40;;;;;;5053794;28;20445;-59
2022/04/18 00:44:03;;;;;;;4.33;3.70;;;8.80;67.60;;;;;;5053405;28;20803;-59
2022/04/18 00:46:30;;;;;;;5.10;4.70;;;8.70;67.80;;;;;;5053814;28;20503;-59
2022/04/18 00:48:57;;;;;;;10.37;6.30;;;8.70;68.70;;;;;;5053639;28;20469;-59
2022/04/18 00:51:28;;;;;;;6.50;5.77;;;8.70;68.70;;;;;;5053630;28;20507;-59
2022/04/18 00:53:57;;;;;;;5.70;4.80;;;8.70;69.20;;;;;;5053532;28;20475;-59
2022/04/18 00:56:26;;;;;;;4.83;4.33;;;8.80;70.00;;;;;;5053675;28;20449;-59
2022/04/18 00:58:54;;;;;;;5.30;4.80;;;8.80;69.40;;;;;;5053224;28;20476;-59
2022/04/18 01:01:22;;;;;;;5.10;4.57;;;8.70;68.90;;;;;;5053237;28;20449;-58
2022/04/18 01:03:50;;;;;;;7.70;4.80;;;8.70;68.70;;;;;;5053580;28;20927;-61
2022/04/18 01:06:17;;;;;;;4.40;4.00;;;8.70;69.60;;;;;;5053124;28;20445;-59
2022/04/18 01:08:48;;;;;;;5.00;4.53;;;8.70;70.20;;;;;;5053388;28;20560;-59
2022/04/18 01:11:16;;;;;;;5.23;4.50;;;8.70;69.80;;;;;;5053580;28;20437;-59
2022/04/18 01:13:44;;;;;;;4.50;3.97;;;8.60;70.30;;;;;;5053375;28;20572;-59
2022/04/18 01:16:11;;;;;;;4.03;3.70;;;8.40;70.40;;;;;;5053312;28;20528;-59
2022/04/18 01:18:39;;;;;;;5.47;3.70;;;8.50;71.70;;;;;;5053209;28;20491;-59
2022/04/18 01:21:08;;;;;;;4.63;4.23;;;8.40;72.00;;;;;;5053069;28;20499;-59
2022/04/18 01:23:35;;;;;;;4.00;3.60;;;8.50;71.20;;;;;;5053028;28;20444;-59
2022/04/18 01:29:02;;;;;;;6.90;4.20;;;8.40;71.70;;;;;;5053080;28;20449;-59
2022/04/18 01:31:31;;;;;;;4.47;4.07;;;8.30;72.00;;;;;;5052777;28;20477;-59
2022/04/18 01:34:00;;;;;;;4.57;3.80;;;8.20;72.00;;;;;;5052924;28;20481;-60
2022/04/18 01:36:29;;;;;;;4.67;4.27;;;7.90;72.10;;;;;;5052868;28;20499;-59
2022/04/18 01:38:57;;;;;;;8.73;4.20;;;8.00;74.30;;;;;;5052809;28;20476;-59
2022/04/18 01:41:24;;;;;;;4.63;4.23;;;8.00;73.80;;;;;;5053251;28;20445;-59
2022/04/18 01:43:52;;;;;;;4.60;4.20;;;8.10;75.10;;;;;;5052801;28;20451;-59
2022/04/18 01:46:19;;;;;;;4.27;3.90;;;7.90;74.30;;;;;;5053075;28;20442;-59
2022/04/18 01:48:50;;;;;;;4.83;4.43;;;7.80;74.30;;;;;;5052869;28;20469;-59
2022/04/18 01:51:18;;;;;;;4.73;4.07;;;7.80;75.50;;;;;;5053133;28;20437;-59
2022/04/18 01:53:47;;;;;;;4.60;4.10;;;8.00;76.60;;;;;;5052936;28;20837;-59
2022/04/18 01:56:14;;;;;;;4.40;4.00;;;8.10;76.60;;;;;;5053090;28;20522;-59
2022/04/18 01:58:41;;;;;;;4.47;4.17;;;8.10;76.20;;;;;;5052987;28;20461;-59
2022/04/18 02:01:08;;;;;;;4.50;4.10;;;8.00;75.60;;;;;;5052716;28;20453;-59
2022/04/18 02:03:35;;;;;;;5.07;4.67;;;7.90;77.00;;;;;;5052641;28;20450;-59
2022/04/18 02:06:02;;;;;;;4.20;3.80;;;7.80;77.90;;;;;;5052679;28;20928;-59
2022/04/18 02:08:29;;;;;;;4.77;4.43;;;7.60;80.10;;;;;;5052837;28;20480;-59
2022/04/18 02:10:58;;;;;;;6.03;4.03;;;7.70;86.30;;;;;;5052849;28;20453;-59
2022/04/18 02:13:28;;;;;;;7.43;4.70;;;7.80;85.70;;;;;;5052672;28;20449;-59
2022/04/18 02:15:57;;;;;;;4.77;4.27;;;7.80;85.70;;;;;;5056172;28;20468;-58
2022/04/18 02:18:24;;;;;;;5.57;4.97;;;7.80;85.30;;;;;;5056110;28;20501;-59
2022/04/18 02:20:51;;;;;;;4.90;4.40;;;7.70;85.10;;;;;;5056418;28;20444;-59
2022/04/18 02:23:19;;;;;;;6.60;4.70;;;7.80;86.80;;;;;;5056294;28;20519;-59
2022/04/18 02:25:46;;;;;;;5.23;4.40;;;7.80;88.80;;;;;;5056112;28;20445;-59
2022/04/18 02:28:15;;;;;;;4.40;3.90;;;7.70;85.90;;;;;;5056033;28;20829;-59
2022/04/18 02:30:42;;;;;;;4.93;4.40;;;7.70;81.60;;;;;;5055739;28;20475;-59
2022/04/18 02:33:09;;;;;;;4.80;4.40;;;7.60;81.20;;;;;;5055897;28;20429;-59
2022/04/18 02:35:36;;;;;;;5.37;4.97;;;7.50;80.30;;;;;;5056176;28;20491;-59
2022/04/18 02:38:06;;;;;;;5.53;4.27;;;7.40;81.50;;;;;;5055178;28;20902;-59
2022/04/18 02:40:33;;;;;;;4.70;4.10;;;7.50;83.00;;;;;;5055727;28;20445;-59
2022/04/18 02:43:00;;;;;;;5.23;4.33;;;7.60;83.20;;;;;;5056003;28;20441;-59
2022/04/18 02:45:31;;;;;;;7.37;4.77;;;7.40;82.70;;;;;;5056038;28;20451;-59
2022/04/18 02:47:58;;;;;;;4.33;4.03;;;7.50;83.70;;;;;;5055915;28;20465;-59
2022/04/18 02:50:25;;;;;;;5.60;5.10;;;7.50;83.50;;;;;;5055545;28;20540;-60
2022/04/18 02:52:52;;;;;;;6.53;4.30;;;7.40;84.20;;;;;;5055618;28;20452;-60
2022/04/18 02:55:19;;;;;;;5.50;5.00;;;7.40;85.10;;;;;;5055466;28;20495;-60
2022/04/18 02:57:47;;;;;;;3.93;3.63;;;7.40;84.90;;;;;;5055661;28;20469;-60
2022/04/18 03:00:14;;;;;;;5.77;4.33;;;7.40;85.20;;;;;;5055493;28;20476;-60
2022/04/18 03:02:43;;;;;;;7.33;4.83;;;7.40;85.20;;;;;;5055297;28;20450;-59
2022/04/18 03:05:12;;;;;;;5.03;4.53;;;7.30;86.50;;;;;;5055288;28;20447;-60
2022/04/18 03:07:39;;;;;;;5.40;4.90;;;7.30;86.30;;;;;;5055569;28;20555;-59
2022/04/18 03:10:07;;;;;;;6.83;4.27;;;7.30;86.80;;;;;;5055164;28;20452;-59
2022/04/18 03:12:34;;;;;;;5.20;4.20;;;7.30;86.70;;;;;;5055102;28;20455;-59
2022/04/18 03:15:02;;;;;;;4.97;4.40;;;7.20;87.20;;;;;;5055140;28;21002;-59
2022/04/18 03:17:29;;;;;;;6.00;5.50;;;7.30;90.80;;;;;;5055065;28;20552;-59
2022/04/18 03:19:58;;;;;;;5.10;4.60;;;7.30;91.00;;;;;;5055219;28;20529;-59
2022/04/18 03:22:25;;;;;;;5.70;5.10;;;7.30;90.40;;;;;;5055021;28;21131;-59
2022/04/18 03:24:52;;;;;;;4.60;4.20;;;;;;;;;;5054926;28;20862;-59
2022/04/18 03:27:20;;;;;;;5.80;4.60;;;6.90;87.50;;;;;;5054105;28;20430;-59
2022/04/18 03:29:48;;;;;;;5.23;4.73;;;6.80;90.00;;;;;;5055155;28;20453;-58
2022/04/18 03:32:15;;;;;;;5.33;4.77;;;6.90;90.10;;;;;;5054707;28;21025;-59
2022/04/18 03:34:42;;;;;;;4.47;4.10;;;7.00;89.50;;;;;;5054977;28;20481;-59
2022/04/18 03:39:55;;;;;;;5.63;4.83;;;7.10;89.50;;;;;;5054813;28;20459;-59
2022/04/18 03:42:31;;;;;;;5.30;4.90;;;7.20;89.60;;;;;;5054699;28;20932;-59
2022/04/18 03:44:59;;;;;;;4.60;4.20;;;;;;;;;;5054651;28;20947;-59
2022/04/18 03:47:27;;;;;;;4.60;4.20;;;7.10;87.90;;;;;;5054451;28;20469;-59
2022/04/18 03:49:55;;;;;;;7.20;5.00;;;7.10;89.60;;;;;;5054355;28;20532;-60
2022/04/18 03:52:24;;;;;;;5.20;4.43;;;7.10;89.40;;;;;;5054769;28;20452;-59
2022/04/18 03:54:51;;;;;;;5.10;4.43;;;7.10;88.80;;;;;;5054104;28;20473;-59
2022/04/18 03:57:18;;;;;;;5.57;5.03;;;7.00;90.00;;;;;;5054566;28;20787;-59
2022/04/18 03:59:46;;;;;;;4.70;4.10;;;6.80;90.00;;;;;;5054337;28;20540;-59
2022/04/18 04:02:13;;;;;;;5.80;5.30;;;6.80;89.70;;;;;;5054232;28;20477;-59
2022/04/18 04:04:41;;;;;;;4.50;4.10;;;6.80;90.50;;;;;;5054508;28;20449;-59
2022/04/18 04:07:08;;;;;;;10.43;4.83;;;6.90;90.20;;;;;;5054435;28;20467;-59
2022/04/18 04:09:37;;;;;;;6.07;5.00;;;6.80;90.50;;;;;;5054335;28;20449;-59
2022/04/18 04:12:05;;;;;;;6.20;5.30;;;6.70;90.70;;;;;;5054004;28;20811;-59
2022/04/18 04:14:32;;;;;;;6.20;4.30;;;6.80;91.70;;;;;;5053996;28;20478;-59
2022/04/18 04:17:00;;;;;;;7.57;4.73;;;6.70;91.60;;;;;;5054244;28;20455;-59
2022/04/18 04:19:27;;;;;;;5.07;4.57;;;6.80;91.40;;;;;;5053971;28;20473;-59
2022/04/18 04:21:54;;;;;;;6.20;4.87;;;6.70;91.80;;;;;;5054205;28;20445;-59
2022/04/18 04:24:22;;;;;;;5.63;4.33;;;6.70;92.20;;;;;;5053811;28;20445;-59
2022/04/18 04:26:50;;;;;;;5.27;4.80;;;6.60;92.40;;;;;;5054209;28;20461;-60
2022/04/18 04:29:18;;;;;;;5.30;4.90;;;6.60;92.60;;;;;;5054001;28;20469;-60
2022/04/18 04:31:45;;;;;;;5.40;4.90;;;6.60;93.00;;;;;;5053599;28;20500;-59
2022/04/18 04:34:12;;;;;;;5.93;4.70;;;6.70;93.20;;;;;;5053934;28;20823;-60
2022/04/18 04:36:41;;;;;;;4.60;4.13;;;6.60;92.90;;;;;;5053459;28;20448;-60
2022/04/18 04:39:08;;;;;;;5.90;4.70;;;6.50;93.50;;;;;;5053855;28;20469;-59
2022/04/18 04:41:36;;;;;;;5.03;4.63;;;6.60;93.30;;;;;;5053496;28;20935;-59
2022/04/18 04:44:05;;;;;;;4.80;4.50;;;6.50;93.50;;;;;;5053429;28;21018;-59
2022/04/18 04:46:32;;;;;;;5.23;4.73;;;6.50;93.60;;;;;;5053805;28;20445;-60
2022/04/18 04:48:59;;;;;;;5.20;4.70;;;6.40;93.50;;;;;;5053336;28;20476;-59
2022/04/18 04:51:26;;;;;;;4.33;3.93;;;6.50;94.00;;;;;;5053332;28;20987;-60
2022/04/18 04:53:54;;;;;;;7.23;5.27;;;6.40;93.90;;;;;;5053956;28;20453;-60
2022/04/18 04:56:23;;;;;;;5.13;4.70;;;6.40;93.90;;;;;;5053592;28;20508;-59
2022/04/18 04:58:53;;;;;;;4.70;4.30;;;6.40;94.00;;;;;;5053479;28;20832;-59
2022/04/18 05:01:22;;;;;;;5.73;4.80;;;6.40;94.20;;;;;;5053258;28;20456;-59
2022/04/18 05:03:49;;;;;;;5.57;5.10;;;6.50;95.00;;;;;;5053919;28;20815;-59
2022/04/18 05:06:17;;;;;;;5.10;4.60;;;6.50;94.80;;;;;;5053481;28;20441;-60
2022/04/18 05:08:44;;;;;;;6.13;5.17;;;6.50;94.30;;;;;;5053085;28;20963;-59
2022/04/18 05:11:12;;;;;;;5.13;4.63;;;6.50;95.00;;;;;;5053535;28;20798;-59
2022/04/18 05:13:39;;;;;;;5.43;4.93;;;6.50;95.20;;;;;;5053407;28;20485;-59
2022/04/18 05:16:06;;;;;;;4.90;4.50;;;6.60;94.70;;;;;;5053327;28;20838;-59
2022/04/18 05:18:35;;;;;;;6.00;5.17;;;6.60;94.70;;;;;;5053675;28;20469;-59
2022/04/18 05:21:02;;;;;;;5.80;5.03;;;6.60;94.80;;;;;;5053249;28;20445;-59
2022/04/18 05:23:29;;;;;;;5.20;4.80;;;6.50;94.90;;;;;;5053038;28;20454;-59
2022/04/18 05:25:56;;;;;;;6.03;5.43;;;6.40;94.70;;;;;;5053456;28;20924;-59
2022/04/18 05:28:24;;;;;;;7.23;5.30;;;6.30;94.90;;;;;;5053255;28;20477;-59
2022/04/18 05:30:51;;;;;;;6.07;5.13;;;6.20;95.20;;;;;;5052791;28;20512;-59
2022/04/18 05:33:21;;;;;;;6.93;5.47;;;6.30;95.50;;;;;;5053326;28;20452;-60
2022/04/18 05:35:50;;;;;;;6.80;4.70;;;;;;;;;;5053174;28;20485;-59
2022/04/18 05:38:17;;;;;;;5.60;5.10;;;6.60;95.20;;;;;;5053163;28;20556;-59
2022/04/18 05:40:44;;;;;;;5.83;5.30;;;6.70;95.30;;;;;;5052993;28;20445;-59
2022/04/18 05:43:11;;;;;;;5.27;4.77;;;6.70;95.20;;;;;;5052839;28;20453;-59
2022/04/18 05:45:39;;;;;;;6.23;5.13;;;6.80;94.40;;;;;;5052757;28;20441;-59
2022/04/18 05:48:06;;;;;;;7.50;5.13;;;6.90;94.40;;;;;;5052773;28;20472;-59
2022/04/18 05:50:34;;;;;;;5.40;4.77;;;6.90;94.40;;;;;;5055866;28;20824;-59
2022/04/18 05:53:03;;;;;;;5.90;4.90;;;7.00;94.50;;;;;;5056543;28;20536;-59
2022/04/18 05:55:35;;;;;;;5.20;4.80;;;7.10;93.90;;;;;;5056567;28;20579;-59
2022/04/18 05:58:04;;;;;;;5.27;4.87;;;7.10;93.10;;;;;;5056657;28;20508;-59
2022/04/18 06:00:32;;;;;;;9.30;5.87;;;7.20;94.60;;;;;;5056850;28;20503;-59
2022/04/18 06:02:59;;;;;;;11.13;5.27;;;7.30;93.90;;;;;;5056476;28;20449;-59
2022/04/18 06:05:27;;;;;;;9.00;5.37;;;7.30;92.30;;;;;;5056820;28;20484;-59
2022/04/18 06:07:54;;;;;;;6.20;5.03;;;7.40;92.00;;;;;;5056572;28;20457;-59
2022/04/18 06:10:23;;;;;;;6.37;4.80;;;7.60;92.50;;;;;;5056356;28;20449;-59
2022/04/18 06:12:50;;;;;;;9.17;4.83;;;7.70;91.80;;;;;;5056693;28;20452;-59
2022/04/18 06:15:17;;;;;;;4.70;4.40;;;7.70;90.70;;;;;;5056499;28;20477;-59
2022/04/18 06:17:44;;;;;;;5.40;4.90;;;7.70;90.60;;;;;;5056552;28;20484;-59
2022/04/18 06:20:11;;;;;;;5.17;4.67;;;7.70;90.50;;;;;;5056149;28;20449;-59
2022/04/18 06:22:38;;;;;;;5.17;4.77;;;7.70;89.80;;;;;;5056444;28;20460;-59
2022/04/18 06:25:06;;;;;;;6.43;5.83;;;7.70;90.20;;;;;;5056084;28;20449;-59
2022/04/18 06:27:35;;;;;;;5.13;4.73;;;7.80;90.40;;;;;;5055967;28;20475;-59
2022/04/18 06:30:02;;;;;;;6.00;5.47;;;7.80;89.60;;;;;;5056043;28;20456;-59
2022/04/18 06:32:29;;;;;;;6.50;4.93;;;8.00;89.50;;;;;;5056332;28;20802;-59
2022/04/18 06:34:58;;;;;;;7.10;6.30;;;8.00;88.40;;;;;;5056084;28;20441;-59
2022/04/18 06:37:25;;;;;;;6.00;5.40;;;8.00;88.50;;;;;;5056144;28;21055;-59
2022/04/18 06:39:53;;;;;;;6.20;5.10;;;8.10;90.00;;;;;;5055817;28;20804;-60
2022/04/18 06:42:20;;;;;;;9.03;6.00;;;8.00;85.10;;;;;;5056220;28;20544;-60
2022/04/18 06:44:48;;;;;;;6.70;4.80;;;8.10;87.40;;;;;;5056028;28;20496;-60
2022/04/18 06:47:19;;;;;;;5.80;5.30;;;8.40;92.30;;;;;;5055952;28;20441;-60
2022/04/18 06:49:47;;;;;;;6.20;5.23;;;8.40;92.40;;;;;;5055580;28;20460;-60
2022/04/18 06:52:15;;;;;;;5.10;4.70;;;8.40;88.10;;;;;;5055937;28;20500;-60
2022/04/18 06:54:42;;;;;;;5.00;4.50;;;8.50;86.70;;;;;;5055845;28;20459;-60
2022/04/18 06:57:08;;;;;;;5.43;5.03;;;8.50;86.10;;;;;;5055810;28;20489;-60
2022/04/18 06:59:36;;;;;;;6.97;4.43;;;8.60;84.80;;;;;;5055549;28;20449;-60
2022/04/18 07:02:05;;;;;;;6.93;4.60;;;8.70;84.40;;;;;;5055358;28;20536;-59
2022/04/18 07:04:32;;;;;;;5.20;4.80;;;8.70;83.60;;;;;;5055651;28;20445;-60
2022/04/18 07:06:59;;;;;;;6.00;4.80;;;8.80;83.80;;;;;;5055364;28;20537;-60
2022/04/18 07:09:26;;;;;;;7.57;6.20;;;8.90;85.60;;;;;;5055561;28;20507;-59
2022/04/18 07:11:53;;;;;;;5.20;4.80;;;9.00;84.90;;;;;;5055470;28;20528;-59
2022/04/18 07:14:21;;;;;;;6.20;5.60;;;9.10;84.50;;;;;;5055451;28;20954;-59
2022/04/18 07:16:49;;;;;;;5.90;4.70;;;9.10;83.20;;;;;;5055441;28;20986;-60
2022/04/18 07:19:18;;;;;;;5.27;4.77;;;9.10;84.10;;;;;;5055262;28;20552;-60
2022/04/18 07:21:45;;;;;;;5.00;4.50;;;9.20;84.60;;;;;;5054940;28;20536;-59
2022/04/18 07:24:12;;;;;;;6.30;5.03;;;9.30;81.80;;;;;;5055368;28;20481;-60
2022/04/18 07:26:40;;;;;;;6.73;5.80;;;9.50;83.70;;;;;;5055187;28;20449;-60
2022/04/18 07:29:07;;;;;;;6.60;4.93;;;9.60;81.80;;;;;;5054813;28;20826;-59
2022/04/18 07:31:34;;;;;;;6.13;5.63;;;9.50;79.40;;;;;;5054863;28;21003;-60
2022/04/18 07:34:02;;;;;;;6.07;5.27;;;9.50;79.80;;;;;;5055096;28;20457;-59
2022/04/18 07:36:30;;;;;;;6.10;5.57;;;9.50;79.10;;;;;;5054613;28;21017;-59
2022/04/18 07:39:02;;;;;;;5.27;4.37;;;9.60;79.20;;;;;;5054760;28;20469;-59
2022/04/18 07:41:31;;;;;;;5.80;4.70;;;9.70;79.50;;;;;;5054714;28;20460;-60
2022/04/18 07:43:59;;;;;;;6.23;5.63;;;9.90;76.70;;;;;;5054875;28;20450;-60
2022/04/18 07:46:26;;;;;;;5.70;5.20;;;10.00;74.00;;;;;;5054547;28;20449;-59
2022/04/18 07:48:53;;;;;;;4.97;4.50;;;10.10;74.70;;;;;;5054724;28;20469;-59
2022/04/18 07:51:34;;;;;;;5.80;5.30;;;10.20;76.10;;;;;;5054422;28;20455;-60
2022/04/18 07:54:05;;;;;;;5.17;4.67;;;10.20;75.40;;;;;;5054760;28;20434;-60
2022/04/18 07:56:33;;;;;;;5.60;5.10;;;10.20;75.60;;;;;;5054287;28;20496;-60
2022/04/18 07:59:00;;;;;;;5.97;4.87;;;10.20;73.70;;;;;;5054600;28;20465;-60
2022/04/18 08:01:28;;;;;;;6.67;4.97;;;10.40;74.00;;;;;;5054589;28;20480;-60
2022/04/18 08:03:57;;;;;;;5.03;4.50;;;10.50;73.20;;;;;;5054119;28;20507;-59
2022/04/18 08:06:24;;;;;;;5.07;4.27;;;;;;;;;;5054248;28;20450;-60
2022/04/18 08:08:51;;;;;;;7.17;5.23;;;10.70;72.00;;;;;;5054018;28;20469;-59
2022/04/18 08:11:20;;;;;;;4.37;4.00;;;10.70;72.80;;;;;;5054283;28;20507;-59
2022/04/18 08:13:48;;;;;;;7.20;6.20;;;10.70;71.20;;;;;;5054008;28;20445;-59
2022/04/18 08:16:16;;;;;;;5.80;5.30;;;10.80;71.90;;;;;;5054214;28;20488;-59
2022/04/18 08:18:45;;;;;;;5.57;4.93;;;10.80;70.80;;;;;;5053835;28;21030;-59
2022/04/18 08:21:13;;;;;;;6.77;5.43;;;10.80;71.00;;;;;;5053872;28;20454;-60
2022/04/18 08:23:40;;;;;;;5.13;4.63;;;11.30;70.80;;;;;;5054021;28;20452;-60
2022/04/18 08:26:07;;;;;;;4.93;4.43;;;12.10;70.50;;;;;;5053827;28;20555;-59
2022/04/18 08:28:37;;;;;;;10.43;4.20;;;13.30;69.10;;;;;;5053750;28;21039;-59
2022/04/18 08:31:05;;;;;;;12.50;5.10;;;14.60;65.40;;;;;;5053999;28;20481;-59
2022/04/18 08:33:33;;;;;;;6.03;4.70;;;14.20;61.40;;;;;;5053569;28;20449;-60
2022/04/18 08:36:01;;;;;;;5.50;5.00;;;15.50;60.10;;;;;;5053758;28;20847;-60
2022/04/18 08:38:28;;;;;;;5.80;4.10;;;15.50;60.80;;;;;;5053583;28;20500;-60
2022/04/18 08:40:58;;;;;;;4.90;4.50;;;16.80;59.60;;;;;;5053806;28;20524;-59
2022/04/18 08:43:25;;;;;;;7.37;4.90;;;17.40;58.50;;;;;;5053500;28;20449;-60
2022/04/18 08:45:54;;;;;;;5.00;4.50;;;17.40;56.70;;;;;;5053918;28;20974;-60
2022/04/18 08:53:58;;;;;;;5.40;4.87;;;16.60;57.00;;;;;;5053550;28;20524;-59
2022/04/18 08:56:26;;;;;;;4.73;4.20;;;16.80;54.70;;;;;;5053458;28;20586;-59
2022/04/18 08:58:53;;;;;;;5.33;4.90;;;17.40;55.80;;;;;;5053225;28;20527;-59
2022/04/18 09:01:22;;;;;;;6.33;4.50;;;17.20;55.20;;;;;;5053325;28;20499;-59
2022/04/18 09:03:49;;;;;;;5.40;4.50;;;17.50;54.90;;;;;;5053524;28;20460;-59
2022/04/18 09:06:16;;;;;;;4.80;4.40;;;17.70;53.20;;;;;;5053208;28;21053;-59
2022/04/18 09:08:44;;;;;;;5.83;4.30;;;;;;;;;;5053195;28;20560;-60
2022/04/18 09:11:12;;;;;;;4.90;4.50;;;18.10;53.90;;;;;;5053054;28;20449;-60
2022/04/18 09:13:43;;;;;;;6.70;6.07;;;18.40;54.70;;;;;;5053083;28;20449;-60
2022/04/18 09:16:16;;;;;;;5.30;4.80;;;19.00;52.80;;;;;;5053064;28;20508;-60
2022/04/18 09:18:45;;;;;;;6.37;5.07;;;19.00;51.40;;;;;;5053420;28;20458;-60
2022/04/18 09:21:12;;;;;;;5.77;4.50;;;18.80;53.30;;;;;;5053217;28;20540;-60
2022/04/18 09:23:39;;;;;;;5.10;4.60;;;19.60;53.50;;;;;;5052863;28;20928;-60
2022/04/18 09:26:09;;;;;;;4.20;3.90;;;19.90;51.60;;;;;;5057153;28;20457;-60
2022/04/18 09:28:40;;;;;;;5.90;4.70;;;19.10;49.60;;;;;;5056986;28;20967;-60
2022/04/18 09:31:09;;;;;;;9.23;4.50;;;19.30;51.40;;;;;;5055762;28;20886;-60
2022/04/18 09:33:46;;;;;;;4.83;4.33;;;19.20;49.60;;;;;;5057126;28;21031;-60
2022/04/18 09:36:17;;;;;;;6.80;4.77;;;19.00;49.10;;;;;;5057012;28;20465;-60
2022/04/18 09:38:45;;;;;;;5.50;5.00;;;19.00;50.10;;;;;;5056807;28;20960;-60
2022/04/18 09:41:14;;;;;;;5.33;4.40;;;19.60;49.30;;;;;;5056817;28;20548;-61
2022/04/18 09:43:43;;;;;;;4.13;3.77;;;19.70;48.00;;;;;;5057085;28;20460;-60
2022/04/18 09:46:12;;;;;;;5.90;4.60;;;19.70;48.90;;;;;;5057199;28;20441;-60
2022/04/18 09:48:40;;;;;;;4.80;4.40;;;19.50;48.70;;;;;;5056728;28;20573;-60
2022/04/18 09:51:11;;;;;;;5.90;5.00;;;20.40;49.50;;;;;;5056771;28;20453;-59
2022/04/18 09:53:41;;;;;;;4.40;3.90;;;;;;;;;;5057044;28;20457;-60
2022/04/18 09:56:08;;;;;;;4.77;3.90;;;;;;;;;;5056781;28;20515;-60
2022/04/18 09:58:37;;;;;;;4.67;4.20;;;;;;;;;;5056538;28;20813;-59
2022/04/18 10:01:07;;;;;;;4.67;3.93;;;;;;;;;;5056566;28;20774;-60
2022/04/18 10:03:35;;;;;;;4.40;4.00;;;;;;;;;;5056854;28;20449;-61
2022/04/18 10:06:03;;;;;;;4.80;4.03;;;;;;;;;;5056707;28;20447;-59
2022/04/18 10:08:34;;;;;;;5.20;3.53;;;21.70;45.90;;;;;;5056694;28;20461;-60
2022/04/18 10:11:03;;;;;;;5.07;4.50;;;21.20;47.60;;;;;;5057091;28;20432;-61
2022/04/18 10:13:31;;;;;;;4.53;3.90;;;21.70;47.20;;;;;;5056356;28;20959;-60
2022/04/18 10:16:00;;;;;;;4.83;3.47;;;21.70;46.10;;;;;;5056598;28;20520;-61
2022/04/18 10:18:32;;;;;;;4.50;4.10;;;21.30;46.70;;;;;;5056557;28;20508;-60
2022/04/18 10:21:14;;;;;;;5.00;4.20;;;21.10;44.90;;;;;;5056217;28;20520;-60
2022/04/18 10:24:10;;;;;;;5.10;4.43;;;22.00;46.30;;;;;;5056487;28;20421;-60
2022/04/18 10:27:24;;;;;;;4.67;4.23;;;22.30;44.00;;;;;;5056478;28;20457;-60
2022/04/18 10:29:54;;;;;;;4.87;4.40;;;21.80;44.20;;;;;;5056203;28;20429;-60
2022/04/18 10:32:24;;;;;;;5.90;4.10;;;21.90;44.50;;;;;;5055716;28;20476;-60
2022/04/18 10:34:52;;;;;;;5.13;4.63;;;21.50;44.80;;;;;;5055484;28;21009;-60
2022/04/18 10:37:23;;;;;;;6.43;4.83;;;21.60;44.90;;;;;;5056037;28;20487;-60
2022/04/18 10:39:59;;;;;;;5.27;4.80;;;21.10;45.20;;;;;;5055798;28;20433;-60
2022/04/18 10:42:31;;;;;;;4.87;4.47;;;20.80;45.40;;;;;;5055669;28;20436;-60
2022/04/18 10:45:05;;;;;;;5.47;4.70;;;21.40;44.90;;;;;;5055791;28;20437;-61
2022/04/18 10:48:01;;;;;;;4.93;4.13;;;21.40;43.70;;;;;;5055859;28;20462;-60
2022/04/18 10:50:32;;;;;;;4.07;3.40;;;21.60;43.50;;;;;;5055996;28;20445;-60
2022/04/18 10:53:33;;;;;;;5.07;3.90;;;22.00;43.80;;;;;;5055487;28;20525;-60
2022/04/18 10:56:14;;;;;;;5.67;4.17;;;21.40;44.10;;;;;;5055849;28;20449;-60
2022/04/18 10:58:50;;;;;;;8.37;5.80;;;21.60;42.70;;;;;;5055753;28;20501;-60
2022/04/18 11:01:19;;;;;;;5.00;4.20;;;22.00;44.00;;;;;;5055690;28;20425;-60
2022/04/18 11:03:59;;;;;;;5.03;4.63;;;22.40;44.30;;;;;;5055643;28;20476;-60
2022/04/18 11:06:54;;;;;;;5.77;4.63;;;23.00;43.80;;;;;;5055332;28;20516;-60
2022/04/18 11:09:23;;;;;;;4.33;3.93;;;22.70;44.00;;;;;;5055238;28;20554;-60
2022/04/18 11:12:13;;;;;;;4.33;3.73;;;22.30;43.20;;;;;;5055464;28;20445;-60
2022/04/18 11:14:51;;;;;;;3.93;3.60;;;21.80;43.20;;;;;;5051324;28;20457;-60
2022/04/18 11:17:32;;;;;;;4.37;3.80;;;21.60;42.90;;;;;;5055333;28;20469;-60
2022/04/18 11:20:26;;;;;;;5.03;4.53;;;22.30;43.70;;;;;;5055422;28;20436;-60
2022/04/18 11:23:21;;;;;;;3.50;3.20;;;22.30;43.00;;;;;;5055014;28;20904;-60
2022/04/18 11:25:52;;;;;;;5.10;4.60;;;22.20;44.00;;;;;;5049489;28;20514;-60
2022/04/18 11:28:21;;;;;;;4.53;3.90;;;21.70;44.80;;;;;;5054790;28;20824;-60
2022/04/18 11:30:48;;;;;;;5.00;3.97;;;22.20;43.80;;;;;;5055059;28;20565;-60
2022/04/18 11:33:15;;;;;;;5.57;3.40;;;22.90;42.70;;;;;;5055064;28;20453;-60
2022/04/18 11:35:43;;;;;;;4.40;4.00;;;22.20;42.20;;;;;;5055013;28;20445;-60
2022/04/18 11:38:11;;;;;;;4.23;3.67;;;22.80;42.70;;;;;;5054847;28;20836;-60
2022/04/18 11:40:40;;;;;;;5.23;4.10;;;23.30;43.80;;;;;;5054956;28;20544;-60
2022/04/18 11:43:12;;;;;;;3.93;3.63;;;23.10;42.90;;;;;;5055004;28;20445;-60
2022/04/18 11:45:40;;;;;;;4.10;3.80;;;22.80;42.50;;;;;;5054965;28;20485;-60
2022/04/18 11:48:08;;;;;;;3.87;3.57;;;23.10;43.30;;;;;;5053634;28;20555;-60
2022/04/18 11:50:37;;;;;;;4.47;4.07;;;22.40;41.50;;;;;;5054708;28;20445;-60
2022/04/18 11:53:06;;;;;;;5.43;3.97;;;22.30;43.00;;;;;;5054396;28;20453;-60
2022/04/18 11:55:42;;;;;;;4.97;4.03;;;22.90;44.10;;;;;;5054518;28;20920;-60
2022/04/18 11:58:10;;;;;;;6.10;4.30;;;23.50;42.30;;;;;;5054614;28;20484;-60
2022/04/18 12:08:53;;;;;;;5.27;4.03;;;21.30;42.10;;;;;;5054204;28;20468;-60
2022/04/18 12:11:20;;;;;;;6.20;4.10;;;22.00;42.50;;;;;;5054040;28;20453;-60
2022/04/18 12:13:48;;;;;;;5.10;4.27;;;21.30;41.80;;;;;;5054001;28;20462;-60
2022/04/18 12:16:18;;;;;;;4.43;3.20;;;22.40;42.00;;;;;;5054133;28;20456;-60
2022/04/18 12:18:47;;;;;;;5.13;4.63;;;22.60;43.10;;;;;;5053950;28;20485;-60
2022/04/18 12:21:14;;;;;;;3.83;3.47;;;22.30;42.00;;;;;;5054177;28;20449;-60
2022/04/18 12:23:41;;;;;;;3.43;3.13;;;21.20;42.40;;;;;;5053776;28;20485;-60
2022/04/18 12:26:11;;;;;;;3.27;2.97;;;21.20;41.50;;;;;;5053893;28;20932;-60
2022/04/18 12:28:38;;;;;;;3.37;3.07;;;22.20;42.60;;;;;;5053611;28;20802;-60
2022/04/18 12:31:09;;;;;;;6.37;3.47;;;22.30;42.00;;;;;;5053542;28;20489;-60
2022/04/18 12:33:48;;;;;;;4.10;3.77;;;21.70;42.30;;;;;;5053639;28;20429;-60
2022/04/18 12:36:23;;;;;;;4.53;3.53;;;21.80;41.50;;;;;;5053855;28;20436;-60
2022/04/18 12:38:51;;;;;;;3.83;3.53;;;21.50;42.70;;;;;;5053697;28;20488;-60
2022/04/18 12:41:28;;;;;;;3.93;3.23;;;21.80;42.60;;;;;;5053879;28;20453;-59
2022/04/18 12:43:56;;;;;;;4.40;3.13;;;22.30;42.50;;;;;;5053731;28;20476;-60
2022/04/18 12:46:29;;;;;;;6.30;3.80;;;22.90;41.70;;;;;;5053381;28;20856;-60
2022/04/18 12:48:58;;;;;;;3.87;3.03;;;22.30;42.60;;;;;;5053259;28;20493;-60
2022/04/18 12:51:38;;;;;;;4.30;3.33;;;22.90;42.50;;;;;;5053235;28;20959;-61
2022/04/18 12:54:05;;;;;;;3.27;2.97;;;23.00;40.70;;;;;;5053253;28;20520;-60
2022/04/18 12:56:33;;;;;;;3.53;3.23;;;22.90;40.60;;;;;;5053530;28;20548;-60
2022/04/18 12:59:02;;;;;;;4.13;3.73;;;22.60;40.20;;;;;;5053170;28;20563;-60
2022/04/18 13:01:32;;;;;;;3.13;2.83;;;22.60;41.20;;;;;;5053476;28;20437;-60
2022/04/18 13:04:01;;;;;;;3.80;3.50;;;22.10;40.10;;;;;;5053359;28;20456;-60
2022/04/18 13:06:31;;;;;;;4.13;3.50;;;22.10;40.80;;;;;;5053083;28;20456;-60
2022/04/18 13:09:04;;;;;;;4.57;3.73;;;21.60;40.50;;;;;;5053461;28;20465;-60
2022/04/18 13:11:41;;;;;;;3.80;3.30;;;21.30;40.70;;;;;;5053789;28;20433;-61
2022/04/18 13:14:09;;;;;;;4.17;3.10;;;21.30;40.70;;;;;;5053527;28;20445;-60
2022/04/18 13:16:42;;;;;;;3.77;3.37;;;21.40;43.10;;;;;;5053386;28;20452;-59
2022/04/18 13:19:14;;;;;;;3.80;3.50;;;21.70;41.90;;;;;;5052981;28;21109;-60
2022/04/18 13:21:42;;;;;;;3.90;3.50;;;21.80;41.10;;;;;;5053392;28;20433;-60
2022/04/18 13:24:11;;;;;;;3.93;3.53;;;21.20;41.60;;;;;;5053018;28;20884;-60
2022/04/18 13:26:38;;;;;;;4.63;3.40;;;21.00;42.20;;;;;;5053289;28;20468;-59